Time;durP1;ratioP1;P1;durP2;ratioP2;P2;SDS_P1;SDS_P2;PMS_P1;PMS_P2;Temp;Humidity;BMP_temperature;BMP_pressure;BME280_temperature;BME280_humidity;BME280_pressure;Samples;Min_cycle;Max_cycle;Signal;HPM_P1;HPM_P2
2022/03/25 00:01:00;;;;;;;54.50;29.42;;;;;;;7.24;66.57;103147.47;5022896;28;20887;-64
2022/03/25 00:03:26;;;;;;;55.15;31.30;;;;;;;7.22;66.87;103151.78;5025396;28;20029;-64
2022/03/25 00:05:52;;;;;;;60.03;32.17;;;;;;;7.18;67.21;103153.50;5025908;28;20361;-64
2022/03/25 00:08:17;;;;;;;56.13;31.17;;;;;;;7.19;66.73;103155.25;5024793;28;20029;-63
2022/03/25 00:10:43;;;;;;;57.08;31.02;;;;;;;7.18;66.92;103147.34;5026577;28;20091;-63
2022/03/25 00:13:09;;;;;;;56.70;30.23;;;;;;;7.14;67.08;103156.03;5025392;28;20033;-64
2022/03/25 00:15:35;;;;;;;57.88;30.60;;;;;;;7.09;67.47;103148.09;5025403;28;20033;-63
2022/03/25 00:18:00;;;;;;;64.18;32.67;;;;;;;7.08;67.75;103146.31;5026414;28;20029;-63
2022/03/25 00:20:25;;;;;;;60.15;31.95;;;;;;;7.04;68.24;103150.63;5025517;28;20041;-63
2022/03/25 00:22:51;;;;;;;56.13;29.58;;;;;;;7.03;68.01;103147.97;5026319;28;20496;-65
2022/03/25 00:25:16;;;;;;;59.10;32.33;;;;;;;6.98;68.34;103147.88;5025303;28;20025;-63
2022/03/25 00:27:41;;;;;;;55.28;31.55;;;;;;;6.93;68.74;103153.03;5025574;28;20354;-63
2022/03/25 00:30:07;;;;;;;55.97;31.25;;;;;;;6.98;68.78;103153.13;5024672;28;20058;-64
2022/03/25 00:32:33;;;;;;;60.85;32.78;;;;;;;6.91;69.32;103152.13;5025364;28;20041;-63
2022/03/25 00:34:59;;;;;;;61.65;33.45;;;;;;;6.85;69.89;103151.13;5026147;28;20123;-65
2022/03/25 00:37:25;;;;;;;65.28;36.47;;;;;;;6.83;70.16;103153.72;5024238;28;20030;-63
2022/03/25 00:39:51;;;;;;;63.80;35.95;;;;;;;6.79;70.92;103146.66;5025209;28;20017;-63
2022/03/25 00:42:16;;;;;;;58.05;33.65;;;;;;;6.85;71.00;103152.00;5025814;28;20102;-64
2022/03/25 00:44:41;;;;;;;61.53;34.92;;;;;;;6.83;70.93;103151.97;5024094;28;20542;-63
2022/03/25 00:47:07;;;;;;;55.78;32.83;;;;;;;6.78;70.79;103145.78;5025096;28;20131;-64
2022/03/25 00:49:32;;;;;;;63.83;32.13;;;;;;;6.73;70.83;103150.03;5024834;28;20040;-63
2022/03/25 00:51:58;;;;;;;68.82;34.45;;;;;;;6.76;71.16;103142.25;5024790;28;20587;-63
2022/03/25 00:54:24;;;;;;;65.30;34.67;;;;;;;6.77;70.93;103149.25;5025061;28;20025;-63
2022/03/25 00:56:49;;;;;;;65.90;35.58;;;;;;;6.77;71.38;103148.38;5025802;28;20373;-63
2022/03/25 00:59:15;;;;;;;63.58;35.42;;;;;;;6.67;72.18;103148.19;5023886;28;20021;-63
2022/03/25 01:01:40;;;;;;;67.07;38.53;;;;;;;6.63;72.36;103150.72;5024757;28;20408;-63
2022/03/25 01:04:07;;;;;;;69.93;36.75;;;;;;;6.57;72.65;103149.72;5025900;28;20033;-63
2022/03/25 01:06:33;;;;;;;68.40;36.75;;;;;;;6.56;73.32;103150.59;5024817;28;20033;-63
2022/03/25 01:08:58;;;;;;;73.65;39.78;;;;;;;6.50;73.99;103149.59;5024449;28;20124;-63
2022/03/25 01:11:23;;;;;;;78.82;40.20;;;;;;;6.48;74.79;103152.19;5023952;28;20040;-63
2022/03/25 01:13:49;;;;;;;76.03;39.35;;;;;;;6.51;74.65;103147.00;5022864;28;20021;-64
2022/03/25 01:16:14;;;;;;;75.45;40.20;;;;;;;6.51;74.91;103156.59;5024722;28;20022;-63
2022/03/25 01:18:40;;;;;;;75.53;42.65;;;;;;;6.55;75.25;103151.44;5025189;28;20376;-62
2022/03/25 01:21:05;;;;;;;79.70;41.83;;;;;;;6.50;75.97;103152.22;5025109;28;20480;-63
2022/03/25 01:23:30;;;;;;;73.40;39.90;;;;;;;6.49;75.93;103147.81;5025348;28;20103;-64
2022/03/25 01:25:56;;;;;;;82.18;42.90;;;;;;;6.43;76.38;103146.84;5024907;28;20029;-64
2022/03/25 01:28:23;;;;;;;78.32;40.25;;;;;;;6.43;76.36;103148.56;5023173;28;20021;-62
2022/03/25 01:30:49;;;;;;;84.75;45.03;;;;;;;6.36;77.25;103144.94;5024537;28;20052;-63
2022/03/25 01:33:15;;;;;;;80.63;45.92;;;;;;;6.30;77.92;103148.28;5024061;28;20022;-63
2022/03/25 01:35:41;;;;;;;87.13;46.58;;;;;;;6.25;78.38;103141.19;5024604;28;20033;-64
2022/03/25 01:38:07;;;;;;;92.68;47.72;;;;;;;6.21;78.90;103152.47;5025505;28;20030;-64
2022/03/25 01:40:33;;;;;;;87.40;46.13;;;;;;;6.19;78.72;103139.34;5024744;28;20542;-64
2022/03/25 01:42:58;;;;;;;87.72;47.95;;;;;;;6.19;78.68;103141.97;5024305;28;20124;-64
2022/03/25 01:45:30;;;;;;;86.55;45.13;;;;;;;6.17;78.94;103138.44;5024688;28;20026;-64
2022/03/25 01:47:55;;;;;;;85.30;46.30;;;;;;;6.13;79.51;103139.19;5024297;28;20029;-65
2022/03/25 01:50:21;;;;;;;90.07;47.20;;;;;;;6.10;79.99;103137.41;5027505;28;20112;-64
2022/03/25 01:52:51;;;;;;;87.03;46.30;;;;;;;6.09;79.99;103140.88;5028884;28;20071;-64
2022/03/25 01:55:24;;;;;;;89.47;47.38;;;;;;;6.11;80.09;103143.53;5009726;28;20033;-64
2022/03/25 01:57:50;;;;;;;91.72;48.00;;;;;;;6.07;80.51;103151.31;5028796;28;20036;-63
2022/03/25 02:00:17;;;;;;;94.28;50.58;;;;;;;6.05;80.99;103146.91;5027475;28;20112;-64
2022/03/25 02:02:43;;;;;;;96.15;50.92;;;;;;;6.02;81.26;103145.03;5028047;28;20056;-64
2022/03/25 02:05:10;;;;;;;90.05;46.45;;;;;;;5.96;81.33;103144.91;5027696;28;20161;-63
2022/03/25 02:07:36;;;;;;;94.07;49.88;;;;;;;5.94;81.75;103141.38;5028257;28;20140;-64
2022/03/25 02:10:02;;;;;;;100.32;50.58;;;;;;;5.95;81.52;103145.75;5027962;28;20037;-64
2022/03/25 02:12:28;;;;;;;100.30;50.17;;;;;;;5.93;81.71;103144.88;5037538;22;20108;-63
2022/03/25 02:14:57;;;;;;;94.97;50.72;;;;;;;5.90;82.04;103145.66;5027533;28;20438;-63
2022/03/25 02:17:22;;;;;;;95.10;47.53;;;;;;;5.81;82.04;103142.84;5033228;28;20565;-64
2022/03/25 02:19:48;;;;;;;100.72;51.15;;;;;;;5.73;82.70;103141.75;5030719;28;20310;-63
2022/03/25 02:22:13;;;;;;;101.50;53.83;;;;;;;5.68;83.12;103136.41;5047481;28;20479;-63
2022/03/25 02:24:39;;;;;;;93.82;48.80;;;;;;;5.62;83.38;103147.63;5040063;28;20033;-64
2022/03/25 02:27:05;;;;;;;114.07;59.45;;;;;;;5.56;84.28;103143.13;5029241;28;20083;-64
2022/03/25 02:29:33;;;;;;;110.28;55.88;;;;;;;5.57;83.99;103139.66;5008780;28;20030;-67
2022/03/25 02:31:58;;;;;;;102.22;53.83;;;;;;;5.56;84.02;103140.53;5011183;28;20029;-64
2022/03/25 02:34:24;;;;;;;106.90;55.13;;;;;;;5.55;84.17;103136.16;5027251;28;20076;-64
2022/03/25 02:36:49;;;;;;;113.22;55.38;;;;;;;5.53;84.64;103139.53;5023447;28;20353;-63
2022/03/25 02:39:16;;;;;;;113.05;57.00;;;;;;;5.54;84.37;103144.81;5048151;28;20379;-62
2022/03/25 02:41:41;;;;;;;105.80;53.38;;;;;;;5.53;84.32;103143.06;5047896;28;20021;-62
2022/03/25 02:44:07;;;;;;;97.90;49.58;;;;;;;5.50;84.25;103142.09;5030464;28;20379;-64
2022/03/25 02:46:32;;;;;;;110.82;53.97;;;;;;;5.53;84.36;103143.06;5028528;28;20017;-64
2022/03/25 02:48:59;;;;;;;103.30;52.83;;;;;;;5.50;84.46;103137.75;5027764;28;20099;-64
2022/03/25 02:51:24;;;;;;;103.40;52.58;;;;;;;5.45;84.62;103144.63;5026830;28;20160;-64
2022/03/25 02:53:49;;;;;;;105.07;53.13;;;;;;;5.44;84.73;103148.06;5027725;28;20132;-64
2022/03/25 02:56:15;;;;;;;109.65;55.38;;;;;;;5.43;84.73;103141.06;5026423;28;20029;-64
2022/03/25 02:58:40;;;;;;;108.38;54.75;;;;;;;5.38;85.07;103142.66;5027938;28;20041;-65
2022/03/25 03:01:09;;;;;;;119.20;57.33;;;;;;;5.34;85.17;103141.72;5025975;28;20028;-63
2022/03/25 03:03:34;;;;;;;122.63;63.00;;;;;;;5.27;85.84;103140.66;5010248;28;20599;-66
2022/03/25 03:06:00;;;;;;;109.68;53.67;;;;;;;5.27;85.60;103139.81;5025021;28;20041;-65
2022/03/25 03:08:26;;;;;;;118.38;55.90;;;;;;;5.24;85.89;103140.59;5026270;28;20268;-64
2022/03/25 03:10:52;;;;;;;122.63;59.72;;;;;;;5.20;86.04;103143.97;5025922;28;20053;-64
2022/03/25 03:13:18;;;;;;;121.55;59.63;;;;;;;5.18;86.08;103143.06;5022769;28;20079;-63
2022/03/25 03:15:43;;;;;;;124.20;60.00;;;;;;;5.18;85.97;103153.53;5026414;28;20025;-64
2022/03/25 03:18:10;;;;;;;138.27;64.50;;;;;;;5.17;86.31;103143.88;5025934;28;20075;-65
2022/03/25 03:20:35;;;;;;;128.75;61.65;;;;;;;5.15;86.20;103145.59;5027205;28;20026;-64
2022/03/25 03:23:01;;;;;;;115.13;55.15;;;;;;;5.14;85.88;103142.09;5025151;28;20033;-63
2022/03/25 03:25:26;;;;;;;120.38;58.15;;;;;;;5.09;86.46;103138.44;5025683;28;20033;-63
2022/03/25 03:27:53;;;;;;;113.28;55.08;;;;;;;5.15;86.20;103143.84;5026629;28;20022;-64
2022/03/25 03:30:19;;;;;;;118.38;57.90;;;;;;;5.19;86.45;103142.22;5025566;28;20022;-64
2022/03/25 03:32:44;;;;;;;118.75;58.22;;;;;;;5.16;86.56;103137.81;5025207;28;20397;-64
2022/03/25 03:35:10;;;;;;;116.47;56.97;;;;;;;5.16;86.54;103134.28;5027217;28;20096;-65
2022/03/25 03:37:43;;;;;;;126.63;59.45;;;;;;;5.13;86.44;103131.59;5027519;28;20449;-63
2022/03/25 03:40:09;;;;;;;121.70;57.42;;;;;;;5.08;86.68;103128.00;5026593;28;20024;-64
2022/03/25 03:42:35;;;;;;;121.63;56.97;;;;;;;5.03;86.84;103128.72;5027527;28;20083;-65
2022/03/25 03:45:00;;;;;;;119.60;57.15;;;;;;;5.00;86.69;103135.63;5008999;28;20030;-63
2022/03/25 03:47:26;;;;;;;126.80;59.85;;;;;;;5.00;86.94;103135.63;4992266;28;20029;-65
2022/03/25 03:49:51;;;;;;;132.10;61.30;;;;;;;4.93;87.47;103129.31;5027111;28;20090;-64
2022/03/25 03:52:16;;;;;;;127.25;57.80;;;;;;;4.87;87.51;103124.81;5026846;28;20029;-65
2022/03/25 03:54:42;;;;;;;136.05;62.25;;;;;;;4.83;87.79;103130.81;5009145;28;20026;-63
2022/03/25 03:57:08;;;;;;;142.70;64.65;;;;;;;4.76;87.99;103134.13;5008763;28;20045;-65
2022/03/25 03:59:34;;;;;;;138.90;65.10;;;;;;;4.73;88.29;103132.28;5026872;28;20044;-64
2022/03/25 04:01:59;;;;;;;147.50;63.38;;;;;;;4.72;88.57;103137.50;5026421;28;20021;-63
2022/03/25 04:04:24;;;;;;;157.25;69.53;;;;;;;4.70;88.81;103134.84;5026502;28;20029;-64
2022/03/25 04:06:50;;;;;;;169.50;73.22;;;;;;;4.71;89.28;103139.22;5027185;28;20037;-64
2022/03/25 04:09:15;;;;;;;154.32;66.93;;;;;;;4.72;89.32;103146.19;5026413;28;20037;-63
2022/03/25 04:11:40;;;;;;;173.23;75.20;;;;;;;4.72;89.51;103146.19;5026226;28;20427;-64
2022/03/25 04:14:06;;;;;;;157.50;67.88;;;;;;;4.74;89.28;103146.22;5026466;28;20143;-64
2022/03/25 04:16:31;;;;;;;148.10;65.93;;;;;;;4.74;89.23;103141.91;5026567;28;20018;-64
2022/03/25 04:18:57;;;;;;;163.35;70.93;;;;;;;4.77;89.11;103144.59;5026619;28;20323;-65
2022/03/25 04:21:22;;;;;;;162.00;69.10;;;;;;;4.77;89.64;103143.72;5026002;28;20036;-63
2022/03/25 04:23:48;;;;;;;168.45;69.68;;;;;;;4.74;89.50;103148.84;5026254;28;20529;-64
2022/03/25 04:26:13;;;;;;;165.05;72.28;;;;;;;4.73;89.89;103147.09;5025812;28;20090;-63
2022/03/25 04:28:38;;;;;;;158.38;69.13;;;;;;;4.74;89.69;103149.75;5025737;28;20029;-63
2022/03/25 04:31:04;;;;;;;178.02;74.30;;;;;;;4.76;89.88;103141.94;5026861;28;20022;-64
2022/03/25 04:33:31;;;;;;;165.57;71.78;;;;;;;4.78;90.06;103150.69;5008151;28;20148;-64
2022/03/25 04:35:57;;;;;;;156.70;67.13;;;;;;;4.73;89.80;103153.19;5008578;28;20075;-63
2022/03/25 04:38:22;;;;;;;164.07;70.63;;;;;;;4.72;90.05;103140.97;5025981;28;20103;-66
2022/03/25 04:40:47;;;;;;;161.02;70.75;;;;;;;4.76;90.10;103141.94;5025768;28;20112;-63
2022/03/25 04:43:13;;;;;;;178.90;75.03;;;;;;;4.73;89.81;103141.88;5025605;28;20037;-63
2022/03/25 04:45:38;;;;;;;153.95;65.57;;;;;;;4.70;90.02;103145.28;5025631;28;20381;-62
2022/03/25 04:48:04;;;;;;;180.13;73.05;;;;;;;4.72;89.70;103146.19;5026483;28;20421;-63
2022/03/25 04:50:30;;;;;;;164.70;68.85;;;;;;;4.70;89.49;103147.91;5007902;28;20076;-65
2022/03/25 04:52:55;;;;;;;171.73;71.50;;;;;;;4.71;89.58;103141.81;5025869;28;20030;-63
2022/03/25 04:55:21;;;;;;;176.30;72.32;;;;;;;4.71;89.57;103149.66;5025312;28;20083;-64
2022/03/25 04:57:47;;;;;;;168.75;70.43;;;;;;;4.63;89.76;103146.81;5024994;28;20031;-64
2022/03/25 05:00:13;;;;;;;155.88;67.53;;;;;;;4.59;89.32;103144.97;5025008;28;20025;-65
2022/03/25 05:02:39;;;;;;;159.98;68.03;;;;;;;4.55;89.80;103145.72;5025331;28;20088;-63
2022/03/25 05:05:04;;;;;;;159.95;70.00;;;;;;;4.53;89.53;103150.91;5026169;28;20499;-63
2022/03/25 05:07:30;;;;;;;170.10;68.35;;;;;;;4.51;90.02;103157.81;5025839;28;20029;-63
2022/03/25 05:09:59;;;;;;;166.80;70.15;;;;;;;4.47;89.87;103153.34;5025627;28;20327;-63
2022/03/25 05:12:25;;;;;;;202.77;80.80;;;;;;;4.43;90.59;103151.47;5025282;28;20128;-64
2022/03/25 05:14:50;;;;;;;194.48;75.53;;;;;;;4.43;90.63;103165.41;5025385;28;20017;-64
2022/03/25 05:17:16;;;;;;;179.63;70.05;;;;;;;4.41;90.60;103159.28;5007579;28;20426;-63
2022/03/25 05:19:42;;;;;;;213.30;81.00;;;;;;;4.43;90.79;103164.53;5025811;28;20022;-62
2022/03/25 05:22:08;;;;;;;197.55;76.05;;;;;;;4.46;91.08;103167.25;5025456;28;20108;-65
2022/03/25 05:24:33;;;;;;;170.48;70.00;;;;;;;4.38;90.60;103168.72;5009943;28;20021;-64
2022/03/25 05:26:59;;;;;;;139.45;60.33;;;;;;;4.26;89.59;103164.91;5029708;28;20023;-63
2022/03/25 05:29:25;;;;;;;150.50;63.55;;;;;;;4.08;89.24;103172.16;5028606;28;20083;-65
2022/03/25 05:31:51;;;;;;;147.77;61.80;;;;;;;3.89;88.97;103174.22;5029268;28;20017;-66
2022/03/25 05:34:16;;;;;;;147.90;60.40;;;;;;;3.71;89.36;103167.56;5027375;28;20261;-64
2022/03/25 05:36:41;;;;;;;143.55;59.53;;;;;;;3.57;89.10;103174.94;5027327;28;20060;-64
2022/03/25 05:39:07;;;;;;;151.13;62.40;;;;;;;3.50;89.34;103172.97;5009648;28;20471;-65
2022/03/25 05:41:33;;;;;;;144.13;58.35;;;;;;;3.43;89.35;103176.19;5027033;28;20056;-64
2022/03/25 05:43:59;;;;;;;142.82;58.72;;;;;;;3.39;89.71;103177.81;5027324;28;20053;-65
2022/03/25 05:46:24;;;;;;;155.07;63.22;;;;;;;3.36;89.79;103175.09;5026103;28;20159;-64
2022/03/25 05:48:49;;;;;;;149.38;59.80;;;;;;;3.35;90.00;103181.13;5027977;28;20044;-64
2022/03/25 05:51:15;;;;;;;153.48;61.90;;;;;;;3.38;90.19;103178.66;5027907;28;20037;-65
2022/03/25 05:53:41;;;;;;;161.55;66.38;;;;;;;3.36;90.38;103185.50;5027337;28;20036;-65
2022/03/25 05:56:07;;;;;;;148.15;58.58;;;;;;;3.36;90.33;103186.41;5028962;28;20029;-64
2022/03/25 05:58:36;;;;;;;159.48;62.42;;;;;;;3.35;90.41;103178.53;5027201;28;20384;-64
2022/03/25 06:01:02;;;;;;;160.95;62.38;;;;;;;3.36;90.43;103185.50;5026280;28;20040;-65
2022/03/25 06:03:28;;;;;;;159.23;62.40;;;;;;;3.40;90.62;103183.06;5028505;28;20040;-63
2022/03/25 06:05:53;;;;;;;136.93;57.95;;;;;;;3.40;90.53;103185.66;5027656;28;20029;-66
2022/03/25 06:08:19;;;;;;;152.85;59.28;;;;;;;3.42;90.48;103177.91;5027063;28;20033;-64
2022/03/25 06:10:44;;;;;;;152.48;57.22;;;;;;;3.46;90.54;103185.00;5028985;28;20026;-63
2022/03/25 06:13:10;;;;;;;151.55;58.97;;;;;;;3.50;90.42;103191.22;5027406;28;20037;-64
2022/03/25 06:15:35;;;;;;;164.35;64.97;;;;;;;3.54;90.70;103196.56;5026988;28;20053;-64
2022/03/25 06:18:00;;;;;;;167.25;63.78;;;;;;;3.62;90.74;103194.22;5011028;28;20487;-65
2022/03/25 06:20:28;;;;;;;139.95;59.50;;;;;;;3.64;90.59;103197.75;5027733;28;20043;-64
2022/03/25 06:22:54;;;;;;;159.43;62.75;;;;;;;3.66;90.39;103201.31;5027885;28;20040;-63
2022/03/25 06:25:20;;;;;;;144.80;60.45;;;;;;;3.71;90.43;103198.88;5028792;28;20029;-64
2022/03/25 06:27:46;;;;;;;145.88;61.70;;;;;;;3.72;90.65;103204.94;5027086;28;20017;-64
2022/03/25 06:30:12;;;;;;;151.45;61.55;;;;;;;3.75;90.54;103200.72;5027398;28;20024;-64
2022/03/25 06:32:37;;;;;;;148.45;65.07;;;;;;;3.78;90.45;103206.06;5026861;28;20029;-65
2022/03/25 06:35:02;;;;;;;149.15;60.17;;;;;;;3.87;90.36;103204.56;5028893;28;20377;-64
2022/03/25 06:37:28;;;;;;;156.82;65.57;;;;;;;3.97;90.55;103203.16;5026277;28;20399;-65
2022/03/25 06:39:53;;;;;;;145.30;61.42;;;;;;;4.03;90.52;103204.22;5028508;28;20014;-65
2022/03/25 06:42:18;;;;;;;163.73;65.32;;;;;;;4.21;90.04;103216.06;5025540;28;20469;-65
2022/03/25 06:44:44;;;;;;;158.70;66.38;;;;;;;4.27;90.17;103211.03;5027170;28;20041;-64
2022/03/25 06:47:09;;;;;;;154.00;61.55;;;;;;;4.36;89.94;103220.88;5008407;28;20530;-64
2022/03/25 06:49:34;;;;;;;168.20;70.50;;;;;;;4.43;90.10;103214.13;5007128;28;20056;-64
2022/03/25 06:52:00;;;;;;;156.27;67.43;;;;;;;4.53;90.00;103217.91;5006094;28;20118;-63
2022/03/25 06:54:26;;;;;;;152.57;65.15;;;;;;;4.61;89.74;103207.69;5025060;28;20111;-64
2022/03/25 06:56:51;;;;;;;143.55;64.43;;;;;;;4.71;89.72;103216.66;5027249;28;20030;-64
2022/03/25 06:59:18;;;;;;;151.65;64.10;;;;;;;4.77;89.33;103217.75;5004584;28;20020;-64
2022/03/25 07:01:44;;;;;;;150.07;65.47;;;;;;;4.87;89.02;103213.66;5008724;28;20381;-64
2022/03/25 07:04:09;;;;;;;137.30;66.38;;;;;;;4.97;88.91;103219.16;5023117;28;20080;-64
2022/03/25 07:06:38;;;;;;;151.10;67.85;;;;;;;5.08;88.90;103229.91;4991970;28;20034;-64
2022/03/25 07:09:04;;;;;;;126.18;58.00;;;;;;;5.24;88.61;103233.81;5012919;28;20025;-65
2022/03/25 07:11:29;;;;;;;137.88;64.60;;;;;;;5.41;88.48;103229.03;5025720;28;20045;-66
2022/03/25 07:13:55;;;;;;;157.13;73.28;;;;;;;5.57;87.85;103227.72;5005683;28;20040;-64
2022/03/25 07:16:20;;;;;;;161.48;76.72;;;;;;;5.76;87.78;103233.41;5024671;28;20440;-70
2022/03/25 07:18:46;;;;;;;150.68;72.95;;;;;;;5.90;87.97;103241.63;5025308;28;20460;-63
2022/03/25 07:21:12;;;;;;;160.90;76.70;;;;;;;6.02;87.77;103238.41;5025215;28;20112;-65
2022/03/25 07:23:38;;;;;;;154.48;71.43;;;;;;;6.17;87.52;103235.31;5025931;28;20025;-67
2022/03/25 07:26:04;;;;;;;151.52;75.68;;;;;;;6.25;86.94;103233.72;5026039;28;20029;-70
2022/03/25 07:28:30;;;;;;;139.02;74.35;;;;;;;6.33;86.38;103233.91;5025519;28;20045;-67
2022/03/25 07:30:55;;;;;;;145.93;74.30;;;;;;;6.43;85.97;103240.22;5025029;28;20236;-67
2022/03/25 07:33:20;;;;;;;134.48;67.35;;;;;;;6.60;85.51;103235.38;5025515;28;20037;-63
2022/03/25 07:35:46;;;;;;;138.27;73.25;;;;;;;6.59;85.17;103241.44;5025347;28;20079;-66
2022/03/25 07:38:11;;;;;;;137.60;72.80;;;;;;;6.70;85.10;103246.94;5008137;28;20029;-66
2022/03/25 07:40:36;;;;;;;134.57;69.45;;;;;;;6.80;84.91;103250.59;5024982;28;20415;-63
2022/03/25 07:43:02;;;;;;;132.80;71.10;;;;;;;6.91;84.52;103251.72;5025394;28;20029;-64
2022/03/25 07:45:27;;;;;;;128.70;71.20;;;;;;;6.98;84.70;103250.09;5021697;28;20330;-64
2022/03/25 07:47:53;;;;;;;129.10;68.05;;;;;;;7.04;84.34;103259.81;5025571;28;20063;-64
2022/03/25 07:50:20;;;;;;;125.57;67.90;;;;;;;7.12;83.89;103263.50;5024711;28;20028;-63
2022/03/25 07:52:46;;;;;;;121.63;65.95;;;;;;;7.26;83.93;103266.41;5026788;28;20033;-63
2022/03/25 07:55:13;;;;;;;128.23;66.65;;;;;;;7.37;83.48;103266.59;5023974;28;20025;-64
2022/03/25 07:57:39;;;;;;;112.75;61.30;;;;;;;7.54;83.24;103264.28;5024425;28;20059;-64
2022/03/25 08:00:11;;;;;;;111.28;59.17;;;;;;;7.56;82.69;103261.69;5024682;28;20033;-63
2022/03/25 08:02:40;;;;;;;106.25;61.42;;;;;;;7.57;82.66;103266.97;5007119;28;20021;-62
2022/03/25 08:05:07;;;;;;;112.78;61.65;;;;;;;7.77;82.27;103274.28;4992345;28;20097;-64
2022/03/25 08:07:40;;;;;;;101.13;56.83;;;;;;;7.85;81.67;103274.41;5025293;28;20083;-64
2022/03/25 08:10:05;;;;;;;100.72;57.58;;;;;;;8.01;80.76;103274.69;5023040;28;20021;-66
2022/03/25 08:12:30;;;;;;;104.78;57.92;;;;;;;8.17;79.94;103288.94;5017964;28;20042;-66
2022/03/25 08:14:56;;;;;;;94.75;53.58;;;;;;;8.22;78.45;103285.53;5023927;28;20056;-64
2022/03/25 08:17:23;;;;;;;99.78;54.60;;;;;;;8.24;78.51;103300.44;5024845;28;20037;-65
2022/03/25 08:19:49;;;;;;;88.63;49.08;;;;;;;8.38;78.01;103295.38;5024597;28;20030;-65
2022/03/25 08:22:14;;;;;;;94.05;54.63;;;;;;;8.41;77.40;103301.56;4970968;28;20026;-65
2022/03/25 08:30:08;;;;;;;88.82;49.33;;;;;;;8.67;75.37;103294.97;5023730;28;20060;-65
2022/03/25 08:32:33;;;;;;;87.97;50.50;;;;;;;8.84;74.68;103296.06;5024177;28;20471;-65
2022/03/25 08:34:58;;;;;;;78.80;44.78;;;;;;;9.01;73.92;103287.50;5024973;28;20529;-65
2022/03/25 08:37:24;;;;;;;82.43;48.03;;;;;;;9.04;73.15;103291.91;5015418;28;20113;-65
2022/03/25 08:39:49;;;;;;;77.15;43.70;;;;;;;9.18;72.08;103300.84;5025843;28;20026;-65
2022/03/25 08:42:15;;;;;;;86.05;47.78;;;;;;;9.16;71.37;103306.97;5016742;28;20061;-64
2022/03/25 08:44:41;;;;;;;81.90;47.35;;;;;;;9.18;71.10;103306.09;5022903;28;20472;-65
2022/03/25 08:47:07;;;;;;;74.63;43.50;;;;;;;9.35;71.40;103305.41;5023602;28;20085;-65
2022/03/25 08:49:33;;;;;;;83.75;47.50;;;;;;;9.33;70.67;103308.03;5007506;28;20045;-63
2022/03/25 08:51:58;;;;;;;82.90;45.80;;;;;;;9.30;70.88;103300.09;5023390;28;20440;-66
2022/03/25 08:54:24;;;;;;;84.38;47.38;;;;;;;9.38;70.31;103297.56;5024975;28;20060;-67
2022/03/25 08:56:50;;;;;;;84.10;46.97;;;;;;;9.44;70.26;103302.91;5022607;28;20113;-66
2022/03/25 08:59:15;;;;;;;76.72;44.45;;;;;;;9.48;69.96;103303.78;5004237;28;20068;-65
2022/03/25 09:01:41;;;;;;;82.93;44.03;;;;;;;9.63;69.54;103310.09;5005177;28;20057;-63
2022/03/25 09:04:06;;;;;;;82.85;45.90;;;;;;;9.74;69.27;103308.44;5006466;28;20033;-64
2022/03/25 09:06:31;;;;;;;81.25;47.33;;;;;;;9.79;69.67;103312.03;5024063;28;20034;-66
2022/03/25 09:08:57;;;;;;;80.30;44.13;;;;;;;9.73;68.97;103311.94;5002670;28;20040;-65
2022/03/25 09:11:22;;;;;;;77.45;44.30;;;;;;;9.69;69.83;103318.94;5010654;28;20091;-66
2022/03/25 09:13:47;;;;;;;73.43;43.95;;;;;;;9.86;69.34;103315.56;5022410;28;20041;-65
2022/03/25 09:16:13;;;;;;;72.43;43.85;;;;;;;9.94;68.30;103310.38;5004684;28;20048;-65
2022/03/25 09:18:39;;;;;;;75.18;42.83;;;;;;;10.06;67.78;103314.88;5015940;28;20034;-66
2022/03/25 09:21:04;;;;;;;79.00;42.38;;;;;;;10.22;67.27;103323.75;5013288;28;20364;-63
2022/03/25 09:23:30;;;;;;;76.03;45.65;;;;;;;10.30;67.44;103322.06;5009905;28;20132;-65
2022/03/25 09:25:56;;;;;;;71.43;41.47;;;;;;;10.30;68.06;103319.41;5004876;28;20018;-69
2022/03/25 09:28:21;;;;;;;68.68;42.63;;;;;;;10.39;67.16;103320.38;4995668;28;20029;-68
2022/03/25 09:30:47;;;;;;;69.70;41.22;;;;;;;10.45;65.46;103325.69;5024492;28;20040;-68
2022/03/25 09:33:12;;;;;;;70.90;39.00;;;;;;;10.55;64.93;103322.28;5023229;28;20071;-65
2022/03/25 09:35:38;;;;;;;70.50;41.72;;;;;;;10.61;65.06;103322.31;5015660;28;20095;-66
2022/03/25 09:38:04;;;;;;;64.63;38.25;;;;;;;10.86;64.31;103326.81;5006054;28;20034;-66
2022/03/25 09:40:29;;;;;;;56.67;33.17;;;;;;;10.80;59.97;103324.16;5024128;28;20025;-70
2022/03/25 09:42:55;;;;;;;53.42;31.70;;;;;;;10.71;58.15;103314.44;5004676;28;20468;-65
2022/03/25 09:45:22;;;;;;;43.60;26.52;;;;;;;10.79;55.87;103320.66;5020934;28;20117;-68
2022/03/25 09:47:48;;;;;;;49.75;30.00;;;;;;;10.76;54.46;103315.34;5004319;28;20515;-64
2022/03/25 09:50:21;;;;;;;47.75;27.40;;;;;;;10.74;53.19;103314.44;5024367;28;20017;-64
2022/03/25 09:52:47;;;;;;;42.60;26.63;;;;;;;10.90;53.04;103312.81;5018079;28;20116;-64
2022/03/25 09:55:13;;;;;;;38.88;22.73;;;;;;;11.03;51.30;103313.72;5016735;28;20074;-66
2022/03/25 09:57:39;;;;;;;44.92;25.33;;;;;;;11.15;51.38;103318.16;5020410;28;20494;-64
2022/03/25 10:00:07;;;;;;;35.72;21.73;;;;;;;11.24;49.57;103319.94;5023616;28;20053;-65
2022/03/25 10:02:32;;;;;;;37.58;20.52;;;;;;;11.11;48.19;103316.41;5024320;28;20018;-65
2022/03/25 10:04:57;;;;;;;41.03;22.80;;;;;;;11.16;49.37;103319.03;5023341;28;20373;-59
2022/03/25 10:07:27;;;;;;;47.70;25.02;;;;;;;11.16;50.66;103319.91;5023510;28;20045;-64
2022/03/25 10:10:11;;;;;;;;;;;;;;;11.27;50.70;103322.59;5024863;28;20387;-62
2022/03/25 10:12:39;;;;;;;44.85;24.73;;;;;;;11.43;50.98;103318.25;5027277;28;20292;-62
2022/03/25 10:15:28;;;;;;;47.72;27.15;;;;;;;11.50;51.51;103316.50;5016321;28;20065;-64
2022/03/25 10:17:56;;;;;;;53.08;29.95;;;;;;;11.49;52.18;103312.09;5006127;28;20022;-65
2022/03/25 10:20:25;;;;;;;57.93;32.40;;;;;;;11.64;53.38;103316.50;5026368;28;20038;-66
2022/03/25 10:23:10;;;;;;;57.58;31.80;;;;;;;11.69;53.17;103309.50;5027097;28;20559;-64
2022/03/25 10:26:06;;;;;;;53.60;31.60;;;;;;;11.63;52.67;103310.34;5009113;28;20057;-64
2022/03/25 10:28:40;;;;;;;50.45;30.63;;;;;;;11.59;52.91;103313.84;5008450;28;20030;-63
2022/03/25 10:31:07;;;;;;;45.88;28.38;;;;;;;11.84;53.09;103303.34;5026499;28;20021;-62
2022/03/25 10:33:47;;;;;;;46.30;27.13;;;;;;;12.24;52.96;103309.50;5026331;28;20037;-62
2022/03/25 10:36:14;;;;;;;54.30;30.83;;;;;;;12.26;53.42;103299.81;5008133;28;20111;-63
2022/03/25 10:38:46;;;;;;;53.97;31.17;;;;;;;12.30;53.51;103304.22;5023647;28;20040;-64
2022/03/25 10:41:13;;;;;;;55.75;30.77;;;;;;;12.01;52.47;103299.78;5014827;28;20030;-62
2022/03/25 10:43:52;;;;;;;50.63;29.95;;;;;;;12.16;53.12;103311.28;5005334;28;20033;-64
2022/03/25 10:46:28;;;;;;;51.63;29.77;;;;;;;12.22;52.86;103298.06;5017444;28;20027;-63
2022/03/25 10:48:53;;;;;;;50.33;29.92;;;;;;;12.33;52.18;103290.09;5017931;28;20357;-62
2022/03/25 10:51:19;;;;;;;56.67;29.10;;;;;;;12.16;50.57;103292.78;5013280;28;20109;-62
2022/03/25 10:53:47;;;;;;;53.05;30.88;;;;;;;12.44;50.33;103298.03;5020096;28;20035;-62
2022/03/25 10:56:13;;;;;;;51.22;29.02;;;;;;;12.66;49.86;103292.66;5026159;28;20049;-63
2022/03/25 10:58:38;;;;;;;55.78;30.35;;;;;;;12.60;49.20;103294.44;5025490;28;20458;-64
2022/03/25 11:01:07;;;;;;;47.95;28.63;;;;;;;12.70;49.60;103295.28;5026580;28;20021;-63
2022/03/25 11:03:32;;;;;;;44.72;26.27;;;;;;;12.98;48.61;103289.03;5021567;28;20033;-62
2022/03/25 11:05:58;;;;;;;47.70;26.50;;;;;;;13.28;47.10;103292.41;5026403;28;20438;-63
2022/03/25 11:08:23;;;;;;;40.28;24.77;;;;;;;13.47;46.79;103294.91;5008055;28;20497;-62
2022/03/25 11:10:49;;;;;;;42.28;26.50;;;;;;;13.57;47.97;103287.81;5024276;28;20045;-62
2022/03/25 11:13:14;;;;;;;44.70;26.45;;;;;;;13.77;46.48;103282.38;5002598;28;20029;-62